Time;durP1;ratioP1;P1;durP2;ratioP2;P2;SDS_P1;SDS_P2;PMS_P1;PMS_P2;Temp;Humidity;BMP_temperature;BMP_pressure;BME280_temperature;BME280_humidity;BME280_pressure;Samples;Min_cycle;Max_cycle;Signal;HPM_P1;HPM_P2
2022/07/30 00:01:49;;;;;;;14.30;6.10;;;;;;;22.80;51.51;98935.40;107960;1274;95648;-66
2022/07/30 00:04:17;;;;;;;14.30;6.30;;;;;;;22.78;51.52;98935.34;107912;1274;111585;-66
2022/07/30 00:06:45;;;;;;;19.60;6.80;;;;;;;22.75;51.46;98929.68;107934;1274;96028;-66
2022/07/30 00:09:13;;;;;;;16.50;6.10;;;;;;;22.74;51.58;98919.60;107916;1274;107085;-67
2022/07/30 00:11:41;;;;;;;20.20;7.20;;;;;;;22.70;51.64;98913.56;107936;1274;95676;-67
2022/07/30 00:14:09;;;;;;;13.90;5.70;;;;;;;22.69;51.91;98910.77;107970;1274;95651;-65
2022/07/30 00:16:38;;;;;;;13.60;5.60;;;;;;;22.67;51.96;98907.91;107950;1274;111473;-66
2022/07/30 00:19:05;;;;;;;16.30;6.70;;;;;;;22.65;51.95;98910.90;107908;1274;95924;-66
2022/07/30 00:21:34;;;;;;;18.20;6.80;;;;;;;22.62;52.02;98914.92;107947;1274;107879;-66
2022/07/30 00:24:07;;;;;;;18.30;6.50;;;;;;;22.60;51.92;98918.73;107936;1274;95676;-66
2022/07/30 00:26:35;;;;;;;13.70;6.40;;;;;;;22.58;52.00;98917.73;107914;1274;96150;-66
2022/07/30 00:29:04;;;;;;;15.60;6.80;;;;;;;22.56;52.18;98913.45;107908;1274;111625;-66
2022/07/30 00:31:32;;;;;;;14.10;6.50;;;;;;;22.53;52.29;98907.30;107927;1274;95704;-66
2022/07/30 00:34:00;;;;;;;16.70;7.00;;;;;;;22.52;52.28;98904.48;107936;1274;107847;-66
2022/07/30 00:36:28;;;;;;;18.10;6.90;;;;;;;22.48;52.44;98896.26;107928;1274;95732;-66
2022/07/30 00:38:56;;;;;;;15.30;6.70;;;;;;;22.44;52.58;98887.48;107948;1274;95672;-66
2022/07/30 00:41:24;;;;;;;15.00;6.70;;;;;;;22.42;52.36;98884.11;107808;1274;112947;-66
2022/07/30 00:43:52;;;;;;;18.00;7.80;;;;;;;22.41;52.68;98878.88;107899;1274;95718;-66
2022/07/30 00:46:20;;;;;;;18.40;7.10;;;;;;;22.37;52.70;98869.24;107852;1274;108432;-66
2022/07/30 00:48:48;;;;;;;16.50;7.00;;;;;;;22.38;52.61;98867.14;107900;1274;96197;-66
2022/07/30 00:51:16;;;;;;;18.20;7.30;;;;;;;22.37;52.86;98864.58;107888;1274;95641;-65
2022/07/30 00:53:43;;;;;;;14.80;7.10;;;;;;;22.36;52.75;98867.60;107760;1274;110478;-65
2022/07/30 00:56:11;;;;;;;16.50;7.30;;;;;;;22.33;52.84;98867.54;107854;1274;95724;-65
2022/07/30 00:58:39;;;;;;;17.70;7.10;;;;;;;22.31;52.86;98870.33;107918;1274;106290;-65
2022/07/30 01:01:07;;;;;;;11.80;5.90;;;;;;;22.26;52.97;98866.55;107936;1274;96018;-67
2022/07/30 01:03:36;;;;;;;16.50;6.80;;;;;;;22.25;52.98;98868.67;107912;1274;95644;-66
2022/07/30 01:06:04;;;;;;;22.10;7.10;;;;;;;22.21;52.98;98859.98;107942;1274;111635;-66
2022/07/30 01:08:42;;;;;;;13.90;6.60;;;;;;;22.19;53.18;98857.40;107900;1274;96359;-66
2022/07/30 01:11:10;;;;;;;21.90;7.00;;;;;;;22.16;53.24;98859.41;107920;1274;107923;-65
2022/07/30 01:13:38;;;;;;;15.80;6.70;;;;;;;22.11;53.23;98853.10;107809;1274;95929;-66
2022/07/30 01:16:06;;;;;;;17.00;6.90;;;;;;;22.12;53.52;98863.29;107924;1274;95617;-66
2022/07/30 01:21:36;;;;;;;15.90;6.90;;;;;;;22.07;53.46;98865.35;107850;1275;96090;-67
2022/07/30 01:24:32;;;;;;;15.20;6.70;;;;;;;22.04;53.65;98862.31;107751;1276;107922;-67
2022/07/30 01:27:01;;;;;;;17.20;7.40;;;;;;;22.01;53.83;98861.86;107915;1274;96064;-67
2022/07/30 01:29:32;;;;;;;19.30;8.30;;;;;;;21.97;53.95;98854.95;107932;1274;95721;-67
2022/07/30 01:32:01;;;;;;;22.00;7.50;;;;;;;21.97;53.71;98861.66;107920;1274;111523;-68
2022/07/30 01:34:33;;;;;;;19.10;7.90;;;;;;;21.96;53.77;98859.73;107944;1274;95773;-66
2022/07/30 01:37:03;;;;;;;18.50;7.80;;;;;;;21.94;53.83;98858.54;107926;1274;108677;-66
2022/07/30 01:39:32;;;;;;;18.90;8.10;;;;;;;21.92;53.87;98850.10;107926;1274;95761;-67
2022/07/30 01:42:04;;;;;;;18.20;8.40;;;;;;;21.89;53.87;98840.12;107956;1274;95662;-67
2022/07/30 01:44:33;;;;;;;19.30;8.70;;;;;;;21.89;53.92;98838.87;107844;1274;111515;-66
2022/07/30 01:47:02;;;;;;;19.60;8.10;;;;;;;21.84;54.11;98830.81;107974;1274;95979;-65
2022/07/30 01:49:33;;;;;;;18.80;7.90;;;;;;;21.82;54.14;98831.28;107980;1274;107813;-66
2022/07/30 01:52:02;;;;;;;19.90;8.00;;;;;;;21.81;54.12;98836.40;107908;1274;95748;-66
2022/07/30 01:54:32;;;;;;;23.90;8.20;;;;;;;21.80;54.30;98835.94;107948;1274;95656;-66
2022/07/30 01:57:01;;;;;;;16.50;7.40;;;;;;;21.77;54.46;98829.50;107782;1274;111545;-67
2022/07/30 01:59:33;;;;;;;15.80;7.20;;;;;;;21.75;54.52;98833.55;107920;1274;95800;-66
2022/07/30 02:02:01;;;;;;;16.80;6.80;;;;;;;21.70;54.61;98830.56;107862;1274;107758;-66
2022/07/30 02:04:29;;;;;;;17.80;7.40;;;;;;;21.65;54.44;98822.16;107930;1274;95692;-66
2022/07/30 02:07:05;;;;;;;15.10;6.30;;;;;;;21.64;54.61;98822.38;107969;1274;95660;-66
2022/07/30 02:09:37;;;;;;;14.10;6.50;;;;;;;21.63;54.67;98826.00;107949;1273;110699;-65
2022/07/30 02:15:09;;;;;;;19.60;6.30;;;;;;;21.54;54.90;98809.94;107903;1274;107400;-66
2022/07/30 02:17:43;;;;;;;16.40;6.50;;;;;;;21.53;54.88;98809.10;107951;1274;95658;-66
2022/07/30 02:20:14;;;;;;;16.20;6.50;;;;;;;21.47;54.99;98802.41;107965;1274;95594;-67
2022/07/30 02:22:45;;;;;;;14.10;6.00;;;;;;;21.43;55.02;98797.85;107927;1274;111773;-66
2022/07/30 02:25:18;;;;;;;13.20;6.00;;;;;;;21.41;54.89;98794.20;107954;1274;95672;-66
2022/07/30 02:27:53;;;;;;;15.50;6.40;;;;;;;21.40;55.09;98796.82;107825;1274;107072;-66
2022/07/30 02:30:25;;;;;;;14.60;6.50;;;;;;;21.39;55.18;98802.14;107905;1274;95950;-66
2022/07/30 02:33:01;;;;;;;17.70;7.20;;;;;;;21.35;55.18;98795.80;107933;1274;95759;-66
2022/07/30 02:35:31;;;;;;;15.40;6.30;;;;;;;21.39;55.38;98804.36;107926;1274;111527;-66
2022/07/30 02:38:01;;;;;;;15.00;7.10;;;;;;;21.38;55.36;98808.54;107947;1274;96268;-65
2022/07/30 02:40:29;;;;;;;16.70;6.50;;;;;;;21.41;55.44;98811.62;107906;1274;107845;-66
2022/07/30 02:42:58;;;;;;;19.00;6.60;;;;;;;21.42;55.54;98810.11;107906;1274;95703;-66
2022/07/30 02:45:27;;;;;;;18.00;6.70;;;;;;;21.44;55.53;98809.19;107933;1274;95655;-66
2022/07/30 02:48:00;;;;;;;14.10;6.10;;;;;;;21.44;55.66;98806.52;107919;1274;111455;-65
2022/07/30 02:50:29;;;;;;;;;;;;;;;21.44;55.65;98804.30;107966;1274;95667;-66
2022/07/30 02:52:59;;;;;;;16.30;7.40;;;;;;;21.41;55.88;98804.61;107936;1274;107856;-66
2022/07/30 02:55:30;;;;;;;18.20;7.10;;;;;;;21.42;55.87;98797.23;107905;1274;95673;-66
2022/07/30 02:58:00;;;;;;;15.60;6.80;;;;;;;21.41;56.05;98793.21;107936;1274;95655;-66
2022/07/30 03:00:29;;;;;;;14.30;6.30;;;;;;;21.42;55.90;98787.36;107931;1274;111431;-66
2022/07/30 03:02:58;;;;;;;17.40;6.70;;;;;;;21.41;55.86;98782.96;107899;1274;95755;-66
2022/07/30 03:05:28;;;;;;;13.70;6.40;;;;;;;21.41;56.17;98784.42;107925;1274;107548;-66
2022/07/30 03:07:58;;;;;;;14.60;6.30;;;;;;;21.39;56.07;98788.41;107901;1274;95742;-67
2022/07/30 03:10:28;;;;;;;12.70;6.40;;;;;;;21.39;56.29;98789.86;107910;1274;96097;-67
2022/07/30 03:12:58;;;;;;;17.30;6.70;;;;;;;21.39;56.22;98780.03;107917;1274;111677;-67
2022/07/30 03:15:28;;;;;;;18.50;6.30;;;;;;;21.40;56.32;98778.63;107998;1272;95986;-67
2022/07/30 03:17:58;;;;;;;14.30;6.50;;;;;;;21.38;56.15;98779.80;107907;1274;107858;-66
2022/07/30 03:20:29;;;;;;;16.10;6.60;;;;;;;21.34;56.40;98780.77;107940;1274;95765;-66
2022/07/30 03:23:00;;;;;;;12.30;6.20;;;;;;;21.31;56.41;98778.77;107930;1274;95682;-66
2022/07/30 03:25:31;;;;;;;16.20;7.30;;;;;;;21.33;56.57;98777.60;107975;1274;111534;-66
2022/07/30 03:28:01;;;;;;;16.60;7.10;;;;;;;21.32;56.65;98772.08;108005;1273;95670;-66
2022/07/30 03:30:30;;;;;;;17.10;6.80;;;;;;;21.29;56.69;98760.65;107910;1275;107469;-67
2022/07/30 03:32:58;;;;;;;16.60;7.10;;;;;;;21.31;56.82;98759.95;107957;1274;95734;-67
2022/07/30 03:35:26;;;;;;;15.60;6.70;;;;;;;21.29;56.72;98762.31;107946;1274;95605;-67
2022/07/30 03:37:59;;;;;;;16.70;7.30;;;;;;;21.24;56.73;98764.33;107989;1274;111462;-67
2022/07/30 03:40:28;;;;;;;15.60;6.50;;;;;;;21.23;56.69;98764.56;107948;1274;96019;-66
2022/07/30 03:42:56;;;;;;;16.20;7.30;;;;;;;21.23;57.09;98767.85;107963;1274;106771;-66
2022/07/30 03:45:25;;;;;;;16.40;7.60;;;;;;;21.23;56.91;98768.30;107990;1273;95632;-66
2022/07/30 03:47:54;;;;;;;14.90;7.10;;;;;;;21.24;57.25;98775.06;107942;1274;95669;-66
2022/07/30 03:50:22;;;;;;;18.00;7.70;;;;;;;21.24;57.19;98778.42;107638;1275;350513;-66
2022/07/30 03:52:50;;;;;;;19.60;8.20;;;;;;;21.20;57.11;98780.17;107889;1276;95880;-66
2022/07/30 03:55:18;;;;;;;15.90;7.50;;;;;;;21.12;57.08;98780.58;107939;1276;108863;-66
2022/07/30 03:57:47;;;;;;;20.30;8.50;;;;;;;21.09;57.31;98782.81;107977;1274;95662;-66
2022/07/30 04:00:16;;;;;;;18.20;8.00;;;;;;;21.12;57.30;98778.53;107888;1276;95640;-66
2022/07/30 04:02:45;;;;;;;16.00;7.10;;;;;;;21.14;57.56;98786.15;107877;1276;111597;-66
2022/07/30 04:05:14;;;;;;;17.40;7.80;;;;;;;21.16;57.66;98784.81;107961;1275;95684;-66
2022/07/30 04:07:42;;;;;;;18.30;8.40;;;;;;;21.16;57.68;98777.75;107960;1274;107823;-66
2022/07/30 04:10:13;;;;;;;16.40;7.30;;;;;;;21.18;57.69;98774.62;107951;1274;95662;-67
2022/07/30 04:12:41;;;;;;;16.40;7.10;;;;;;;21.17;57.65;98772.27;107846;1275;96033;-66
2022/07/30 04:15:10;;;;;;;18.10;8.00;;;;;;;21.16;57.79;98769.57;107964;1274;111494;-66
2022/07/30 04:18:01;;;;;;;17.20;7.50;;;;;;;21.14;57.84;98767.52;107972;1274;95701;-66
2022/07/30 04:20:34;;;;;;;16.90;7.30;;;;;;;21.12;57.79;98761.42;107920;1274;107046;-66
2022/07/30 04:23:02;;;;;;;;;;;;;;;21.09;57.99;98760.59;107983;1274;96061;-65
2022/07/30 04:25:31;;;;;;;19.00;7.50;;;;;;;21.07;58.04;98759.23;107985;1274;95601;-65
2022/07/30 04:27:59;;;;;;;14.10;6.50;;;;;;;21.07;57.96;98758.40;107987;1274;112445;-65
2022/07/30 04:30:34;;;;;;;15.90;7.00;;;;;;;21.12;57.97;98758.60;107951;1274;96069;-65
2022/07/30 04:33:03;;;;;;;16.10;7.20;;;;;;;21.11;58.06;98752.73;107966;1274;107867;-65
2022/07/30 04:35:32;;;;;;;14.00;7.00;;;;;;;21.17;58.31;98759.09;107961;1274;95588;-65
2022/07/30 04:38:19;;;;;;;16.30;7.50;;;;;;;21.19;58.34;98764.02;107956;1274;95658;-65
2022/07/30 04:40:47;;;;;;;18.30;7.60;;;;;;;21.21;58.48;98765.62;107984;1274;111505;-66
2022/07/30 04:43:15;;;;;;;18.10;7.50;;;;;;;21.22;58.29;98764.42;107982;1274;95901;-66
2022/07/30 04:45:44;;;;;;;17.50;7.10;;;;;;;21.20;58.34;98754.50;107977;1274;106431;-65
2022/07/30 04:48:11;;;;;;;17.40;7.30;;;;;;;21.25;58.52;98759.30;107973;1274;95661;-66
2022/07/30 04:50:44;;;;;;;15.60;7.30;;;;;;;21.24;58.45;98753.81;107998;1274;95636;-66
2022/07/30 04:53:13;;;;;;;14.20;7.10;;;;;;;21.27;58.59;98757.83;107973;1274;111540;-66
2022/07/30 04:55:44;;;;;;;15.90;7.40;;;;;;;21.26;58.76;98752.49;107999;1274;95781;-66
2022/07/30 04:58:15;;;;;;;15.50;7.20;;;;;;;21.31;58.66;98755.39;107997;1274;107799;-66
2022/07/30 05:00:44;;;;;;;17.30;7.30;;;;;;;21.29;58.55;98741.39;107993;1274;95596;-66
2022/07/30 05:03:14;;;;;;;15.50;6.80;;;;;;;21.34;58.87;98741.10;107988;1274;95581;-66
2022/07/30 05:05:43;;;;;;;19.20;7.90;;;;;;;21.34;58.68;98737.86;107979;1274;110884;-66
2022/07/30 05:08:11;;;;;;;16.10;7.30;;;;;;;21.35;58.89;98740.92;107995;1274;95659;-65
2022/07/30 05:10:40;;;;;;;13.70;7.40;;;;;;;21.33;58.90;98743.55;107943;1274;107805;-65
2022/07/30 05:13:12;;;;;;;16.60;7.30;;;;;;;21.31;59.04;98742.52;107947;1274;95689;-67
2022/07/30 05:15:41;;;;;;;;;;;;;;;21.37;58.90;98749.97;108001;1274;95689;-68
2022/07/30 05:18:09;;;;;;;17.30;8.60;;;;;;;21.37;59.15;98747.02;107950;1274;110463;-68
2022/07/30 05:20:37;;;;;;;20.80;7.80;;;;;;;21.39;59.00;98746.76;107975;1274;97136;-68
2022/07/30 05:23:06;;;;;;;19.70;7.90;;;;;;;21.36;59.13;98738.14;107840;1274;106816;-68
2022/07/30 05:25:33;;;;;;;18.40;7.40;;;;;;;21.37;58.96;98742.42;107956;1274;95685;-67
2022/07/30 05:28:01;;;;;;;16.80;7.20;;;;;;;21.39;59.36;98746.84;107961;1274;95683;-68
2022/07/30 05:30:29;;;;;;;15.70;7.20;;;;;;;21.41;59.17;98746.85;107925;1274;111584;-69
2022/07/30 05:32:57;;;;;;;16.10;7.00;;;;;;;21.44;59.24;98742.76;107900;1274;96052;-71
2022/07/30 05:35:28;;;;;;;17.30;7.60;;;;;;;21.44;59.30;98737.55;107944;1274;107835;-70
2022/07/30 05:37:55;;;;;;;13.70;7.20;;;;;;;21.47;59.37;98741.34;107921;1274;95862;-68
2022/07/30 05:40:23;;;;;;;15.00;7.40;;;;;;;21.52;59.41;98749.14;107800;1274;95582;-68
2022/07/30 05:42:51;;;;;;;17.20;7.50;;;;;;;21.55;59.30;98753.63;107921;1274;112432;-68
2022/07/30 05:45:19;;;;;;;15.90;6.80;;;;;;;21.58;59.41;98753.75;107943;1274;95809;-68
2022/07/30 05:47:47;;;;;;;18.80;7.30;;;;;;;21.56;59.18;98758.10;107923;1274;107987;-70
2022/07/30 05:50:14;;;;;;;18.50;7.70;;;;;;;21.53;59.41;98755.42;107939;1274;95755;-71
2022/07/30 05:52:42;;;;;;;13.40;6.30;;;;;;;21.53;59.30;98762.39;107922;1274;95901;-73
2022/07/30 05:55:11;;;;;;;16.50;6.60;;;;;;;21.54;59.43;98758.15;107929;1274;110917;-68
2022/07/30 05:57:40;;;;;;;15.00;7.00;;;;;;;21.58;59.66;98758.41;107806;1274;95723;-67
2022/07/30 06:00:10;;;;;;;15.70;7.10;;;;;;;21.60;59.59;98759.16;107778;1274;108119;-68
2022/07/30 06:02:39;;;;;;;13.00;6.90;;;;;;;21.66;59.54;98767.89;107929;1274;95636;-68
2022/07/30 06:05:07;;;;;;;15.70;7.10;;;;;;;21.68;59.68;98770.16;107791;1274;95760;-69
2022/07/30 06:07:35;;;;;;;10.80;6.40;;;;;;;21.71;59.71;98774.65;107929;1274;111386;-68
2022/07/30 06:10:04;;;;;;;16.00;6.90;;;;;;;21.71;59.75;98770.11;107956;1274;95890;-65
2022/07/30 06:12:32;;;;;;;18.00;7.40;;;;;;;21.78;59.58;98770.98;107908;1274;107864;-66
2022/07/30 06:15:00;;;;;;;14.20;6.40;;;;;;;21.84;59.80;98775.16;107880;1274;95802;-66
2022/07/30 06:17:28;;;;;;;15.30;6.90;;;;;;;21.91;59.65;98777.45;107899;1274;95653;-70
2022/07/30 06:19:58;;;;;;;17.20;7.40;;;;;;;21.96;59.46;98776.92;107880;1274;110875;-71
2022/07/30 06:22:26;;;;;;;13.30;7.10;;;;;;;22.00;59.59;98779.58;107789;1274;96091;-70
2022/07/30 06:24:54;;;;;;;12.00;6.40;;;;;;;22.05;59.88;98773.70;107882;1274;108871;-68
2022/07/30 06:27:22;;;;;;;16.30;6.90;;;;;;;22.12;59.77;98773.90;107933;1274;95624;-67
2022/07/30 06:29:50;;;;;;;17.30;6.80;;;;;;;22.18;59.80;98766.26;107887;1276;96844;-70
2022/07/30 06:32:18;;;;;;;18.00;6.70;;;;;;;22.24;60.06;98756.38;107958;1274;111825;-70
2022/07/30 06:34:46;;;;;;;13.80;7.00;;;;;;;22.32;60.04;98753.88;107969;1274;95766;-67
2022/07/30 06:37:14;;;;;;;14.60;6.40;;;;;;;22.39;59.77;98751.05;107983;1274;106921;-72
2022/07/30 06:39:41;;;;;;;15.70;7.10;;;;;;;22.45;59.97;98749.73;107927;1274;95708;-72
2022/07/30 06:42:23;;;;;;;13.60;6.50;;;;;;;22.53;59.97;98745.88;107978;1274;95921;-69
2022/07/30 06:44:51;;;;;;;17.90;6.80;;;;;;;22.59;60.04;98748.44;107972;1274;111458;-70
2022/07/30 06:47:24;;;;;;;12.30;6.50;;;;;;;22.67;60.00;98748.90;107878;1274;95735;-68
2022/07/30 06:49:52;;;;;;;15.20;6.50;;;;;;;22.74;59.90;98740.05;107982;1274;107642;-68
2022/07/30 06:52:20;;;;;;;12.60;6.10;;;;;;;22.87;59.77;98739.44;107965;1274;95844;-70
2022/07/30 06:54:48;;;;;;;15.70;6.80;;;;;;;22.98;59.95;98738.48;107987;1274;95627;-70
2022/07/30 06:57:16;;;;;;;13.90;6.80;;;;;;;23.10;59.93;98738.46;107864;1275;110011;-70
2022/07/30 06:59:44;;;;;;;18.80;7.20;;;;;;;23.25;59.81;98738.14;107957;1274;96078;-69
2022/07/30 07:02:23;;;;;;;15.10;6.50;;;;;;;23.38;59.62;98738.38;107958;1274;107539;-71
2022/07/30 07:04:51;;;;;;;12.90;6.70;;;;;;;23.49;59.64;98735.85;107969;1274;95714;-70
2022/07/30 07:07:19;;;;;;;17.60;6.90;;;;;;;23.62;59.59;98726.79;107945;1274;95746;-71
2022/07/30 07:10:07;;;;;;;15.50;6.90;;;;;;;23.79;59.48;98726.08;107928;1274;110401;-71
2022/07/30 07:12:35;;;;;;;13.10;6.20;;;;;;;23.90;59.67;98721.40;107933;1274;96055;-71
2022/07/30 07:15:04;;;;;;;16.80;6.10;;;;;;;23.98;59.57;98722.81;107881;1274;107847;-70
2022/07/30 07:17:31;;;;;;;14.50;6.90;;;;;;;24.08;59.54;98717.27;107933;1274;95898;-71
2022/07/30 07:19:59;;;;;;;14.10;6.80;;;;;;;24.22;59.52;98718.06;107944;1274;95650;-71
2022/07/30 07:22:29;;;;;;;15.10;6.20;;;;;;;24.35;59.50;98711.55;107932;1274;111329;-71
2022/07/30 07:24:57;;;;;;;12.70;6.10;;;;;;;24.48;59.44;98705.00;107948;1274;95952;-70
2022/07/30 07:27:24;;;;;;;15.60;6.60;;;;;;;24.59;59.35;98692.98;107935;1274;107783;-71
2022/07/30 07:29:52;;;;;;;14.10;6.30;;;;;;;24.73;59.28;98696.33;107842;1274;95754;-72
2022/07/30 07:32:32;;;;;;;13.50;6.20;;;;;;;24.83;59.21;98697.19;107972;1274;95689;-71
2022/07/30 07:35:00;;;;;;;17.60;6.60;;;;;;;24.88;59.13;98692.18;107972;1274;111434;-71
2022/07/30 07:37:28;;;;;;;15.30;6.60;;;;;;;25.00;59.05;98697.05;107993;1274;95882;-69
2022/07/30 07:39:55;;;;;;;17.00;6.60;;;;;;;25.11;59.08;98695.49;107849;1275;107692;-70
2022/07/30 07:42:23;;;;;;;16.20;6.40;;;;;;;25.23;58.98;98698.67;107958;1274;95681;-70
2022/07/30 07:44:51;;;;;;;16.00;7.00;;;;;;;25.32;58.92;98698.91;107959;1274;95688;-74
2022/07/30 07:47:19;;;;;;;15.80;6.50;;;;;;;25.45;58.90;98699.45;107957;1274;111459;-72
2022/07/30 07:49:46;;;;;;;12.70;6.90;;;;;;;25.54;58.86;98694.52;107989;1274;96124;-71
2022/07/30 07:52:14;;;;;;;15.30;6.80;;;;;;;25.68;58.62;98690.73;107983;1274;107881;-74
2022/07/30 07:54:42;;;;;;;13.60;6.20;;;;;;;26.33;57.84;98684.27;107950;1274;96938;-71
2022/07/30 07:57:10;;;;;;;16.90;6.70;;;;;;;27.76;57.14;98674.31;107971;1274;95670;-71
2022/07/30 07:59:41;;;;;;;15.50;6.30;;;;;;;28.83;57.30;98674.66;107999;1274;110400;-70
2022/07/30 08:02:09;;;;;;;16.50;6.30;;;;;;;29.72;57.36;98680.49;107957;1274;95642;-71
2022/07/30 08:04:37;;;;;;;14.70;6.70;;;;;;;29.86;57.77;98680.79;107957;1274;108543;-71
2022/07/30 08:07:05;;;;;;;14.50;6.20;;;;;;;29.81;57.76;98685.35;107970;1274;96175;-71
2022/07/30 08:09:33;;;;;;;16.40;6.60;;;;;;;29.76;57.48;98683.23;107994;1274;95930;-71
2022/07/30 08:12:11;;;;;;;14.20;6.20;;;;;;;29.65;57.23;98682.11;107982;1274;111491;-72
2022/07/30 08:14:39;;;;;;;18.60;6.50;;;;;;;29.76;56.94;98682.09;107993;1274;96110;-72
2022/07/30 08:17:08;;;;;;;15.10;6.20;;;;;;;29.95;56.62;98682.92;107972;1274;107778;-74
2022/07/30 08:19:36;;;;;;;11.10;5.90;;;;;;;29.96;56.48;98684.21;107961;1274;95710;-72
2022/07/30 08:22:04;;;;;;;11.10;5.50;;;;;;;30.02;56.33;98678.65;107988;1274;95682;-70
2022/07/30 08:24:32;;;;;;;11.30;5.90;;;;;;;30.38;55.80;98675.86;107883;1275;111297;-74
2022/07/30 08:27:00;;;;;;;13.90;6.10;;;;;;;30.88;55.33;98673.61;108000;1274;96186;-72
2022/07/30 08:29:31;;;;;;;15.00;5.80;;;;;;;31.57;54.97;98673.99;107992;1274;107728;-80
2022/07/30 08:31:59;;;;;;;14.20;5.70;;;;;;;32.33;54.84;98665.40;107975;1274;95717;-77
2022/07/30 08:34:28;;;;;;;16.40;5.50;;;;;;;33.12;54.53;98663.58;108013;1274;95730;-75
2022/07/30 08:36:56;;;;;;;12.20;4.90;;;;;;;33.76;54.22;98666.39;108005;1274;111368;-77
2022/07/30 08:39:23;;;;;;;12.80;5.50;;;;;;;34.34;54.06;98664.57;107982;1274;97044;-72
2022/07/30 08:41:51;;;;;;;17.10;6.20;;;;;;;35.08;53.65;98666.40;108005;1274;107805;-71
2022/07/30 08:44:20;;;;;;;18.60;7.00;;;;;;;35.72;53.24;98660.85;108059;1274;95760;-74
2022/07/30 08:46:51;;;;;;;20.90;6.00;;;;;;;36.34;52.80;98659.50;107985;1274;95964;-75
2022/07/30 08:49:19;;;;;;;23.80;9.10;;;;;;;36.68;52.26;98665.83;107743;1274;111443;-75
2022/07/30 08:51:48;;;;;;;25.20;8.90;;;;;;;37.13;51.91;98666.34;107793;1274;96101;-74
2022/07/30 08:54:19;;;;;;;16.60;6.30;;;;;;;37.61;51.60;98662.09;107976;1274;107781;-72
2022/07/30 08:56:51;;;;;;;21.40;8.40;;;;;;;38.10;50.87;98663.70;107972;1274;95691;-76
2022/07/30 08:59:22;;;;;;;14.90;6.00;;;;;;;38.44;50.40;98660.62;107851;1274;95676;-70
2022/07/30 09:01:50;;;;;;;21.40;7.80;;;;;;;38.71;50.10;98657.52;107929;1274;112653;-71
2022/07/30 09:04:18;;;;;;;19.90;7.90;;;;;;;39.13;49.82;98658.39;107962;1274;96096;-73
2022/07/30 09:06:46;;;;;;;11.50;5.30;;;;;;;39.57;49.09;98650.41;107942;1274;108747;-74
2022/07/30 09:09:15;;;;;;;17.50;6.20;;;;;;;39.91;48.33;98653.34;107968;1274;96059;-73
2022/07/30 09:11:43;;;;;;;9.90;5.20;;;;;;;40.10;47.77;98651.62;107982;1274;95640;-74
2022/07/30 09:14:13;;;;;;;11.20;5.60;;;;;;;40.00;47.27;98648.38;107966;1274;111538;-76
2022/07/30 09:16:43;;;;;;;12.60;5.20;;;;;;;40.11;46.59;98646.48;107967;1274;95643;-74
2022/07/30 09:19:18;;;;;;;11.60;5.30;;;;;;;40.25;46.25;98648.30;107983;1274;107749;-71
2022/07/30 09:21:57;;;;;;;13.30;6.40;;;;;;;40.13;45.67;98640.87;107954;1274;95659;-73
2022/07/30 09:24:25;;;;;;;19.60;7.60;;;;;;;39.73;45.55;98640.30;107978;1274;95763;-72
2022/07/30 09:27:03;;;;;;;11.60;5.70;;;;;;;39.32;45.05;98643.19;107868;1274;111375;-74
2022/07/30 09:29:32;;;;;;;21.20;8.70;;;;;;;38.55;44.39;98653.22;107938;1274;96334;-74
2022/07/30 09:32:02;;;;;;;20.90;8.20;;;;;;;38.03;44.15;98649.42;107933;1274;108520;-72
2022/07/30 09:34:38;;;;;;;13.90;6.30;;;;;;;37.52;44.05;98635.17;107975;1274;95986;-74
2022/07/30 09:37:09;;;;;;;14.10;6.90;;;;;;;36.95;43.39;98634.47;107969;1274;95721;-74
2022/07/30 09:39:40;;;;;;;16.00;7.80;;;;;;;36.42;43.11;98634.23;107944;1274;111366;-73
2022/07/30 09:42:26;;;;;;;13.90;6.50;;;;;;;35.82;42.67;98635.28;107866;1274;96098;-71
2022/07/30 09:45:10;;;;;;;13.10;6.80;;;;;;;35.21;42.43;98631.41;107936;1274;106339;-72
2022/07/30 09:47:41;;;;;;;11.00;6.00;;;;;;;34.73;42.35;98630.41;107943;1274;96050;-71
2022/07/30 09:50:14;;;;;;;12.50;5.90;;;;;;;34.33;42.24;98629.80;107999;1274;95742;-70
2022/07/30 09:53:06;;;;;;;14.90;6.10;;;;;;;33.95;41.88;98631.66;107948;1274;111389;-70
2022/07/30 09:55:35;;;;;;;11.20;6.00;;;;;;;33.62;41.80;98632.13;107941;1273;96104;-70
2022/07/30 09:58:10;;;;;;;18.40;6.30;;;;;;;33.20;41.53;98629.39;107951;1274;107363;-70
2022/07/30 10:00:46;;;;;;;20.20;6.60;;;;;;;32.72;41.46;98633.31;107924;1274;97138;-73
2022/07/30 10:03:25;;;;;;;16.20;6.10;;;;;;;32.39;41.40;98626.11;107960;1274;97010;-72
2022/07/30 10:06:01;;;;;;;14.80;6.20;;;;;;;32.07;41.34;98626.31;107947;1274;111404;-71
2022/07/30 10:08:43;;;;;;;10.80;6.20;;;;;;;31.72;41.19;98624.11;107979;1274;96174;-71
2022/07/30 10:11:16;;;;;;;10.40;5.90;;;;;;;31.54;41.19;98623.78;107915;1274;107731;-71
2022/07/30 10:13:54;;;;;;;20.70;6.10;;;;;;;31.50;41.38;98619.23;107952;1274;95664;-71
2022/07/30 10:16:27;;;;;;;14.00;6.10;;;;;;;31.49;41.24;98617.24;107952;1274;95631;-70
2022/07/30 10:18:58;;;;;;;11.80;6.30;;;;;;;31.49;41.28;98620.60;107961;1274;110506;-70
2022/07/30 10:21:27;;;;;;;12.40;6.30;;;;;;;31.49;41.33;98624.39;107931;1274;96928;-72
2022/07/30 10:23:59;;;;;;;;;;;;;;;31.48;41.47;98616.45;107979;1274;107022;-72
2022/07/30 10:26:33;;;;;;;16.90;6.20;;;;;;;31.43;41.39;98618.55;107944;1274;95668;-72
2022/07/30 10:29:03;;;;;;;13.70;6.40;;;;;;;31.29;41.31;98619.95;107916;1274;95887;-71
2022/07/30 10:31:32;;;;;;;13.80;6.40;;;;;;;31.20;41.50;98616.00;107945;1274;110894;-70
2022/07/30 10:34:18;;;;;;;14.10;6.50;;;;;;;31.07;41.54;98604.38;107948;1274;96239;-71
2022/07/30 10:36:57;;;;;;;13.40;6.20;;;;;;;30.99;41.52;98607.35;107952;1274;106730;-70
2022/07/30 10:39:53;;;;;;;12.40;6.20;;;;;;;30.85;41.63;98601.44;107915;1274;95733;-77
2022/07/30 10:43:09;;;;;;;15.60;6.80;;;;;;;30.75;41.58;98601.88;107948;1274;95779;-75
2022/07/30 10:45:58;;;;;;;22.20;8.20;;;;;;;30.63;41.86;98603.08;107283;1274;111212;-73
2022/07/30 10:48:31;;;;;;;34.30;10.40;;;;;;;30.52;41.81;98593.89;107982;1274;95640;-73
2022/07/30 10:51:00;;;;;;;17.70;7.00;;;;;;;30.42;41.92;98594.50;107970;1274;107724;-73
2022/07/30 10:53:44;;;;;;;17.50;7.00;;;;;;;30.32;41.92;98590.64;107899;1274;95710;-72
2022/07/30 10:56:20;;;;;;;15.00;6.50;;;;;;;30.11;42.00;98580.20;107898;1274;96041;-74
2022/07/30 10:58:56;;;;;;;18.80;7.40;;;;;;;29.96;42.01;98576.07;107972;1274;109877;-74
2022/07/30 11:01:46;;;;;;;15.80;6.80;;;;;;;29.91;42.21;98573.86;107840;1274;96092;-75
2022/07/30 11:04:24;;;;;;;41.10;17.90;;;;;;;29.88;42.18;98577.64;107946;1274;108550;-74
2022/07/30 11:07:28;;;;;;;15.90;7.10;;;;;;;29.77;42.15;98574.89;107726;1274;95640;-75
2022/07/30 11:10:00;;;;;;;12.50;6.40;;;;;;;29.69;42.30;98576.19;107974;1274;95760;-71
2022/07/30 11:12:42;;;;;;;19.10;7.50;;;;;;;29.65;42.56;98568.23;107961;1274;111575;-75
2022/07/30 11:15:12;;;;;;;17.70;7.70;;;;;;;29.66;42.62;98561.84;107963;1274;96056;-73
2022/07/30 11:18:07;;;;;;;17.10;6.70;;;;;;;29.74;42.63;98554.73;107837;1274;107610;-76
2022/07/30 11:20:41;;;;;;;14.80;6.50;;;;;;;29.78;42.71;98550.67;107950;1274;95760;-74
2022/07/30 11:23:18;;;;;;;13.90;6.40;;;;;;;29.80;42.90;98552.61;107952;1274;95709;-74
2022/07/30 11:25:47;;;;;;;17.50;7.30;;;;;;;29.77;42.85;98540.24;107912;1274;112011;-77
2022/07/30 11:28:42;;;;;;;17.70;7.30;;;;;;;29.78;43.05;98534.40;107857;1274;96338;-78
2022/07/30 11:31:34;;;;;;;15.50;6.60;;;;;;;29.83;43.16;98532.55;107827;1274;107480;-79
2022/07/30 11:34:24;;;;;;;15.20;7.40;;;;;;;29.85;43.34;98535.23;107853;1274;95810;-74
2022/07/30 11:37:05;;;;;;;15.40;7.10;;;;;;;29.84;43.31;98528.23;107990;1274;95666;-77
2022/07/30 11:40:09;;;;;;;16.00;6.50;;;;;;;29.84;43.38;98527.30;107943;1274;110396;-80